FW9064 Weather Reports


Display with metric or nautical units.
time (UTC)temp
F
wind
direction
speed
MPH
gust
MPH
rain 1hr
in
rain 24hr
in
rain mn
in
humidity
%
barometer
mb
20210421163913 50 71 2.0 3.0 0.00 0.00 0.00 57 1023.6
20210421162159 50 108 1.0 1.0 0.00 0.00 0.00 58 1023.6
20210421154555 45 68 3.0 7.0 0.00 0.00 0.00 62 1023.9
20210421152922 46 122 3.0 5.0 0.00 0.00 0.00 64 1023.8
20210421152616 46 71 2.0 2.0 0.00 0.00 0.00 64 1023.8
20210421151847 47 91 2.0 2.0 0.00 0.00 0.00 61 1023.3
20210421144730 46 40 5.0 7.0 0.00 0.00 0.00 67 1022.6
20210421143608 47 93 2.0 2.0 0.00 0.00 0.00 68 1022.6
20210421142829 47 128 1.0 1.0 0.00 0.00 0.00 68 1022.8
20210421142316 47 96 2.0 2.0 0.00 0.00 0.00 66 1022.7
20210421141941 47 102 2.0 3.0 0.00 0.00 0.00 66 1022.0
20210421135122 47 101 3.0 5.0 0.00 0.00 0.00 64 1021.9
20210421134246 48 92 4.0 8.0 0.00 0.00 0.00 64 1021.8
20210421133746 48 103 0.0 0.0 0.00 0.00 0.00 67 1021.6
20210421133318 48 98 4.0 6.0 0.00 0.00 0.00 65 1021.6
20210421132820 47 92 1.0 1.0 0.00 0.00 0.00 67 1021.4
20210421132200 48 68 3.0 5.0 0.00 0.00 0.00 66 1021.3
20210421131701 48 55 1.0 3.0 0.00 0.00 0.00 67 1021.4
20210421124450 47 98 2.0 2.0 0.00 0.00 0.00 70 1020.8
20210421124136 47 81 2.0 2.0 0.00 0.00 0.00 69 1020.7
20210421123639 46 82 1.0 2.0 0.00 0.00 0.00 70 1020.9
20210421123214 46 115 1.0 2.0 0.00 0.00 0.00 72 1020.6
20210421122652 47 108 1.0 2.0 0.00 0.00 0.00 71 1020.5
20210421122134 46 104 0.0 0.0 0.00 0.00 0.00 73 1020.3
20210421121541 47 115 3.0 3.0 0.00 0.00 0.00 73 1020.3
20210421115327 46 112 0.0 0.0 0.00 0.00 0.00 76 1020.0
20210421114431 46 111 0.0 0.0 0.00 0.00 0.00 74 1020.1
20210421113917 46 104 0.0 0.0 0.00 0.00 0.00 74 1019.7
20210421113551 46 110 0.0 0.0 0.00 0.00 0.00 75 1019.5
20210421112923 46 114 1.0 1.0 0.00 0.00 0.00 74 1019.6
20210421112540 46 104 1.0 1.0 0.00 0.00 0.00 74 1019.5
20210421111941 46 108 0.0 0.0 0.00 0.00 0.00 74 1019.5
20210421111427 46 105 1.0 1.0 0.00 0.00 0.00 73 1019.6
20210421110903 46 88 1.0 2.0 0.00 0.00 0.00 74 1019.1
20210421104824 47 103 2.0 2.0 0.00 0.00 0.00 72 1019.2
20210421104214 47 72 1.0 2.0 0.00 0.00 0.00 72 1019.1
20210421103702 47 111 1.0 1.0 0.00 0.00 0.00 73 1019.1
20210421103157 47 117 2.0 2.0 0.00 0.00 0.00 72 1019.0
20210421102650 47 112 2.0 3.0 0.00 0.00 0.00 72 1018.8
20210421102151 47 54 3.0 3.0 0.00 0.00 0.00 72 1018.7
20210421101644 48 105 1.0 2.0 0.00 0.00 0.00 71 1018.7
20210421101139 48 107 2.0 2.0 0.00 0.00 0.00 72 1018.5
20210421100625 49 114 3.0 5.0 0.00 0.00 0.00 70 1018.2
20210421094649 50 117 1.0 1.0 0.00 0.00 0.00 72 1018.2
20210421094100 50 115 0.0 1.0 0.00 0.00 0.00 71 1017.9
20210421093602 51 74 2.0 3.0 0.00 0.00 0.00 72 1017.5
20210421093104 51 72 4.0 7.0 0.00 0.00 0.00 73 1017.8
20210421092552 51 104 1.0 1.0 0.00 0.00 0.00 75 1017.2
20210421092101 52 123 1.0 1.0 0.00 0.00 0.00 75 1017.5
20210421091552 52 117 1.0 2.0 0.00 0.00 0.00 74 1017.2
20210421091131 52 135 1.0 1.0 0.00 0.00 0.00 75 1017.0
20210421090317 53 95 3.0 5.0 0.00 0.00 0.00 75 1016.7
20210421084541 53 130 3.0 5.0 0.00 0.00 0.00 74 1016.5
20210421083955 53 99 1.0 1.0 0.00 0.00 0.00 74 1016.5
20210421083452 54 108 0.0 1.0 0.00 0.00 0.00 74 1016.4
20210421082958 54 108 0.0 1.0 0.00 0.00 0.00 73 1016.1
20210421082451 54 95 1.0 1.0 0.00 0.00 0.00 73 1016.4
20210421081938 54 106 0.0 0.0 0.00 0.00 0.00 73 1016.3
20210421081530 55 107 0.0 1.0 0.00 0.00 0.00 72 1016.2
20210421080152 56 108 2.0 2.0 0.00 0.00 0.00 67 1016.0
20210421074409 57 112 0.0 1.0 0.00 0.00 0.00 67 1016.1
20210421073852 57 114 3.0 3.0 0.00 0.00 0.00 67 1015.6
20210421073341 56 92 0.0 0.0 0.00 0.00 0.00 68 1015.5
20210421072839 55 115 0.0 0.0 0.00 0.00 0.00 70 1015.8
20210421072328 53 113 0.0 0.0 0.00 0.00 0.00 73 1016.0
20210421071814 50 106 0.0 0.0 0.00 0.00 0.00 87 1015.9
20210421071316 48 94 1.0 1.0 0.00 0.00 0.00 94 1015.6
20210421070618 48 117 0.0 0.0 0.00 0.00 0.00 93 1015.3
20210421065024 49 117 0.0 0.0 0.00 0.00 0.00 93 1015.1
20210421064242 49 117 0.0 0.0 0.00 0.00 0.00 93 1015.3
20210421063743 49 117 0.0 0.0 0.00 0.00 0.00 93 1015.4
20210421063234 49 117 0.0 0.0 0.00 0.00 0.00 92 1015.4
20210421062933 49 117 0.0 0.0 0.00 0.00 0.00 92 1015.4
20210421062615 49 117 0.0 0.0 0.00 0.00 0.00 91 1015.3
20210421061714 49 117 0.0 0.0 0.00 0.00 0.00 91 1015.5
20210421061209 50 117 0.0 0.0 0.00 0.00 0.00 91 1015.5
20210421060700 50 117 0.0 0.0 0.00 0.00 0.00 90 1015.5
20210421060212 50 117 0.0 0.0 0.00 0.00 0.00 91 1015.6
20210421055136 50 117 0.0 0.0 0.00 0.00 0.00 90 1016.0
20210421054420 50 117 0.0 0.0 0.00 0.00 0.00 90 1015.6
20210421053916 50 117 0.0 0.0 0.00 0.00 0.00 90 1016.1
20210421053416 50 117 0.0 0.0 0.00 0.00 0.00 90 1015.8
20210421053106 50 117 0.0 0.0 0.00 0.00 0.00 89 1015.9
20210421052857 50 117 0.0 0.0 0.00 0.00 0.00 89 1015.9
20210421052019 50 117 0.0 0.0 0.00 0.00 0.00 89 1016.0
20210421051342 50 117 0.0 0.0 0.00 0.00 0.00 89 1015.8
20210421050834 50 117 0.0 0.0 0.00 0.00 0.00 88 1015.6
20210421050326 51 117 0.0 0.0 0.00 0.00 0.00 88 1015.8
20210421045932 51 117 0.0 0.0 0.00 0.00 0.00 87 1015.5
20210421045632 51 117 0.0 0.0 0.00 0.00 0.00 87 1015.5
20210421044854 51 117 0.0 0.0 0.00 0.00 0.00 86 1015.9
20210421044320 51 117 0.0 0.0 0.00 0.00 0.00 86 1015.6
20210421043743 51 117 0.0 0.0 0.00 0.00 0.00 87 1015.8
20210421043248 51 117 0.0 0.0 0.00 0.00 0.00 86 1015.8
20210421042901 51 117 0.0 0.0 0.00 0.00 0.00 85 1015.8
20210421042442 51 117 0.0 0.0 0.00 0.00 0.00 85 1015.9
20210421041643 51 117 0.0 0.0 0.00 0.00 0.00 85 1015.8
20210421041142 51 117 0.0 0.0 0.00 0.00 0.00 85 1015.8
20210421040632 52 117 0.0 0.0 0.00 0.00 0.00 84 1015.6
20210421040130 52 117 0.0 0.0 0.00 0.00 0.00 83 1015.6
20210421035855 52 117 0.0 0.0 0.00 0.00 0.00 82 1015.9
20210421035244 53 117 0.0 0.0 0.00 0.00 0.00 81 1015.8
20210421034619 53 117 0.0 0.0 0.00 0.00 0.00 81 1015.6
20210421034120 53 117 0.0 0.0 0.00 0.00 0.00 81 1015.8
20210421033601 53 117 0.0 0.0 0.00 0.00 0.00 80 1015.6
20210421033057 53 117 0.0 0.0 0.00 0.00 0.00 79 1015.8
20210421032741 53 117 0.0 0.0 0.00 0.00 0.00 79 1015.8
20210421032157 53 117 0.0 0.0 0.00 0.00 0.00 78 1015.6
20210421031541 54 117 0.0 0.0 0.00 0.00 0.00 78 1015.9
20210421031039 54 117 0.0 0.0 0.00 0.00 0.00 77 1015.6
20210421030531 55 117 0.0 0.0 0.00 0.00 0.00 76 1015.6
20210421030116 55 117 0.0 0.0 0.00 0.00 0.00 75 1015.6
20210421025841 55 117 0.0 0.0 0.00 0.00 0.00 75 1015.8
20210421025230 55 117 0.0 0.0 0.00 0.00 0.00 73 1015.6
20210421024518 55 117 0.0 0.0 0.00 0.00 0.00 73 1015.5
20210421024026 55 117 0.0 0.0 0.00 0.00 0.00 73 1015.5
20210421023509 56 117 0.0 0.0 0.00 0.00 0.00 72 1015.5
20210421023024 56 117 0.0 0.0 0.00 0.00 0.00 72 1015.5
20210421022759 56 117 0.0 0.0 0.00 0.00 0.00 72 1015.4
20210421022155 57 117 0.0 0.0 0.00 0.00 0.00 71 1015.3
20210421021453 57 117 0.0 0.0 0.00 0.00 0.00 69 1015.3
20210421020954 57 117 0.0 0.0 0.00 0.00 0.00 69 1015.2
20210421020444 57 117 0.0 0.0 0.00 0.00 0.00 68 1015.2
20210421015944 57 117 0.0 0.0 0.00 0.00 0.00 67 1015.2
20210421015753 57 119 0.0 1.0 0.00 0.00 0.00 67 1015.2
20210421015025 58 118 0.0 0.0 0.00 0.00 0.00 66 1015.2
20210421014412 58 118 0.0 0.0 0.00 0.00 0.00 65 1015.1
20210421013900 58 118 0.0 0.0 0.00 0.00 0.00 65 1015.3
20210421013356 59 118 0.0 0.0 0.00 0.00 0.00 64 1014.5
20210421012848 59 118 0.0 0.0 0.00 0.00 0.00 63 1014.6
20210421012524 60 113 0.0 0.0 0.00 0.00 0.00 62 1014.7
20210421011905 60 103 0.0 0.0 0.00 0.00 0.00 61 1014.6
20210421011335 60 103 0.0 0.0 0.00 0.00 0.00 61 1014.5
20210421010838 61 103 0.0 0.0 0.00 0.00 0.00 60 1014.3
20210421010331 61 103 0.0 0.0 0.00 0.00 0.00 57 1014.4
20210421005830 62 103 0.0 0.0 0.00 0.00 0.00 55 1014.2
20210421004853 63 103 0.0 0.0 0.00 0.00 0.00 54 1014.2
20210421004302 63 103 0.0 0.0 0.00 0.00 0.00 52 1014.2
20210421003756 64 104 0.0 0.0 0.00 0.00 0.00 51 1014.1
20210421003256 65 103 0.0 0.0 0.00 0.00 0.00 49 1014.2
20210421002818 65 104 0.0 0.0 0.00 0.00 0.00 48 1013.9
20210421002624 66 104 0.0 0.0 0.00 0.00 0.00 46 1013.9
20210421001820 66 104 0.0 0.0 0.00 0.00 0.00 45 1013.9
20210421001242 67 104 0.0 0.0 0.00 0.00 0.00 44 1013.8
20210421000736 68 104 0.0 0.0 0.00 0.00 0.00 45 1014.0
20210421000236 68 104 0.0 0.0 0.00 0.00 0.00 43 1013.7
20210420235835 69 103 0.0 0.0 0.00 0.00 0.00 40 1013.8
20210420235557 69 103 0.0 0.0 0.00 0.00 0.00 40 1013.8
20210420234705 70 103 0.0 0.0 0.00 0.00 0.00 38 1013.7
20210420234150 71 133 0.0 0.0 0.00 0.00 0.00 35 1013.7
20210420233641 71 113 0.0 0.0 0.00 0.00 0.00 36 1013.5
20210420233144 72 110 0.0 0.0 0.00 0.00 0.00 35 1013.8
20210420232847 72 120 0.0 0.0 0.00 0.00 0.00 34 1013.7
20210420232537 72 105 0.0 0.0 0.00 0.00 0.00 35 1013.6
20210420231619 73 106 0.0 0.0 0.00 0.00 0.00 36 1013.6
20210420231113 73 108 0.0 0.0 0.00 0.00 0.00 34 1013.6
20210420230609 73 105 0.0 1.0 0.00 0.00 0.00 33 1013.8
20210420230105 74 108 1.0 1.0 0.00 0.00 0.00 33 1013.7
20210420225730 74 124 0.0 0.0 0.00 0.00 0.00 35 1013.7
20210420225311 75 120 0.0 0.0 0.00 0.00 0.00 34 1013.8
20210420224550 76 92 1.0 2.0 0.00 0.00 0.00 32 1013.7
20210420224049 77 110 1.0 2.0 0.00 0.00 0.00 31 1013.8
20210420223540 78 109 0.0 0.0 0.00 0.00 0.00 32 1013.7
20210420223040 77 109 0.0 0.0 0.00 0.00 0.00 31 1013.7
20210420222639 78 144 1.0 2.0 0.00 0.00 0.00 31 1013.7
20210420222132 77 128 0.0 1.0 0.00 0.00 0.00 32 1013.6
20210420221539 77 121 0.0 0.0 0.00 0.00 0.00 32 1013.8
20210420221018 77 106 1.0 1.0 0.00 0.00 0.00 32 1013.7
20210420220518 76 124 0.0 0.0 0.00 0.00 0.00 33 1013.9
20210420220022 76 135 0.0 1.0 0.00 0.00 0.00 32 1013.7
20210420215729 76 103 0.0 0.0 0.00 0.00 0.00 33 1013.9
20210420215119 76 112 1.0 1.0 0.00 0.00 0.00 33 1013.9
20210420214450 77 113 2.0 2.0 0.00 0.00 0.00 33 1014.0
20210420213943 77 111 2.0 3.0 0.00 0.00 0.00 34 1013.8
20210420213434 77 117 0.0 1.0 0.00 0.00 0.00 32 1013.9
20210420212935 77 110 1.0 1.0 0.00 0.00 0.00 32 1013.8
20210420212713 77 109 0.0 1.0 0.00 0.00 0.00 36 1014.0
20210420212047 77 136 1.0 1.0 0.00 0.00 0.00 35 1013.6
20210420211414 76 113 0.0 0.0 0.00 0.00 0.00 33 1014.0
20210420210905 77 106 1.0 1.0 0.00 0.00 0.00 30 1013.8
20210420210405 76 100 0.0 0.0 0.00 0.00 0.00 34 1013.9
20210420205907 76 106 1.0 2.0 0.00 0.00 0.00 32 1013.8
20210420205410 76 116 2.0 5.0 0.00 0.00 0.00 30 1014.0
20210420204913 76 168 1.0 3.0 0.00 0.00 0.00 30 1013.8
20210420204352 76 109 1.0 1.0 0.00 0.00 0.00 32 1014.0
20210420203851 77 70 1.0 2.0 0.00 0.00 0.00 29 1014.4
20210420203348 77 139 1.0 2.0 0.00 0.00 0.00 29 1014.2
20210420202842 77 110 0.0 0.0 0.00 0.00 0.00 29 1014.1
20210420202430 77 129 3.0 5.0 0.00 0.00 0.00 30 1014.2
20210420201829 77 112 0.0 1.0 0.00 0.00 0.00 32 1014.3
20210420201322 77 133 1.0 1.0 0.00 0.00 0.00 30 1014.4
20210420200815 78 125 1.0 2.0 0.00 0.00 0.00 32 1014.6
20210420200208 77 109 1.0 1.0 0.00 0.00 0.00 37 1014.5
20210420195736 78 114 0.0 1.0 0.00 0.00 0.00 32 1014.6
20210420195240 78 120 3.0 3.0 0.00 0.00 0.00 33 1014.9
20210420194657 78 146 1.0 2.0 0.00 0.00 0.00 33 1014.8
20210420194154 79 119 0.0 0.0 0.00 0.00 0.00 33 1014.9
20210420193645 78 102 0.0 0.0 0.00 0.00 0.00 33 1014.8
20210420193144 76 117 1.0 1.0 0.00 0.00 0.00 36 1015.0
20210420192723 76 111 0.0 0.0 0.00 0.00 0.00 34 1015.0
20210420192324 76 146 2.0 2.0 0.00 0.00 0.00 34 1015.0
20210420191631 78 152 1.0 2.0 0.00 0.00 0.00 33 1015.3
20210420191123 76 233 4.0 6.0 0.00 0.00 0.00 33 1015.3
20210420190614 78 159 2.0 3.0 0.00 0.00 0.00 33 1015.2
20210420190120 76 102 0.0 0.0 0.00 0.00 0.00 34 1015.3
20210420185645 76 114 1.0 1.0 0.00 0.00 0.00 34 1015.6
20210420185135 77 113 1.0 2.0 0.00 0.00 0.00 32 1015.8
20210420184555 78 154 3.0 3.0 0.00 0.00 0.00 31 1015.4
20210420184009 78 114 0.0 1.0 0.00 0.00 0.00 34 1015.4
20210420183500 77 199 1.0 2.0 0.00 0.00 0.00 36 1015.8
20210420183010 75 123 0.0 0.0 0.00 0.00 0.00 36 1015.9
20210420182715 76 141 2.0 2.0 0.00 0.00 0.00 36 1016.1
20210420182120 76 106 1.0 2.0 0.00 0.00 0.00 37 1016.2
20210420181439 77 110 3.0 5.0 0.00 0.00 0.00 34 1016.2
20210420180935 75 124 1.0 1.0 0.00 0.00 0.00 34 1016.0
20210420180435 75 120 1.0 1.0 0.00 0.00 0.00 35 1016.3
20210420180047 76 177 3.0 5.0 0.00 0.00 0.00 34 1016.4
20210420175515 76 92 1.0 1.0 0.00 0.00 0.00 33 1016.2
20210420174911 76 109 1.0 1.0 0.00 0.00 0.00 35 1016.2
20210420174409 76 121 0.0 0.0 0.00 0.00 0.00 34 1016.5
20210420173907 76 122 2.0 2.0 0.00 0.00 0.00 33 1016.5
20210420173403 76 146 1.0 1.0 0.00 0.00 0.00 34 1016.5
20210420172902 76 156 3.0 3.0 0.00 0.00 0.00 33 1016.8
20210420172539 75 189 2.0 3.0 0.00 0.00 0.00 35 1016.8
20210420171915 75 127 1.0 1.0 0.00 0.00 0.00 40 1016.8
20210420171327 74 105 2.0 2.0 0.00 0.00 0.00 40 1016.8
20210420170822 73 107 1.0 2.0 0.00 0.00 0.00 40 1016.9
20210420170437 72 128 0.0 1.0 0.00 0.00 0.00 39 1016.9